sensor_id;sensor_type;location;lat;lon;timestamp;pressure;altitude;pressure_sealevel;temperature;humidity
1832;BME280;1680;48.106;11.708;2023-04-22T00:01:20;94983.28;;;10.08;98.23
1832;BME280;1680;48.106;11.708;2023-04-22T00:03:48;94979.06;;;9.96;98.71
1832;BME280;1680;48.106;11.708;2023-04-22T00:06:16;94990.31;;;9.96;98.85
1832;BME280;1680;48.106;11.708;2023-04-22T00:08:45;94988.09;;;9.88;99.08
1832;BME280;1680;48.106;11.708;2023-04-22T00:11:12;94992.19;;;9.84;99.74
1832;BME280;1680;48.106;11.708;2023-04-22T00:13:39;94984.38;;;9.73;100.00
1832;BME280;1680;48.106;11.708;2023-04-22T00:16:08;94944.09;;;9.51;100.00
1832;BME280;1680;48.106;11.708;2023-04-22T00:18:35;94975.59;;;9.67;100.00
1832;BME280;1680;48.106;11.708;2023-04-22T00:21:03;94987.53;;;9.75;100.00
1832;BME280;1680;48.106;11.708;2023-04-22T00:23:30;94987.53;;;9.75;100.00
1832;BME280;1680;48.106;11.708;2023-04-22T00:25:59;94991.97;;;9.74;99.71
1832;BME280;1680;48.106;11.708;2023-04-22T00:28:26;94986.88;;;9.68;100.00
1832;BME280;1680;48.106;11.708;2023-04-22T00:30:54;94984.00;;;9.69;100.00
1832;BME280;1680;48.106;11.708;2023-04-22T00:33:23;94988.47;;;9.58;100.00
1832;BME280;1680;48.106;11.708;2023-04-22T00:35:50;94976.75;;;9.49;100.00
1832;BME280;1680;48.106;11.708;2023-04-22T00:38:19;94989.81;;;9.60;100.00
1832;BME280;1680;48.106;11.708;2023-04-22T00:40:46;94993.81;;;9.63;100.00
1832;BME280;1680;48.106;11.708;2023-04-22T00:43:15;94994.94;;;9.66;99.86
1832;BME280;1680;48.106;11.708;2023-04-22T00:45:43;94980.50;;;9.64;99.88
1832;BME280;1680;48.106;11.708;2023-04-22T00:48:11;94991.19;;;9.63;100.00
1832;BME280;1680;48.106;11.708;2023-04-22T00:50:39;94932.97;;;9.10;100.00
1832;BME280;1680;48.106;11.708;2023-04-22T00:53:06;94988.59;;;9.40;100.00
1832;BME280;1680;48.106;11.708;2023-04-22T00:55:33;94985.75;;;9.41;100.00
1832;BME280;1680;48.106;11.708;2023-04-22T00:58:01;94978.56;;;9.37;100.00
1832;BME280;1680;48.106;11.708;2023-04-22T01:00:31;94994.25;;;9.37;100.00
1832;BME280;1680;48.106;11.708;2023-04-22T01:02:58;94987.91;;;9.33;100.00
1832;BME280;1680;48.106;11.708;2023-04-22T01:05:26;94968.81;;;9.21;100.00
1832;BME280;1680;48.106;11.708;2023-04-22T01:07:55;94996.34;;;9.35;100.00
1832;BME280;1680;48.106;11.708;2023-04-22T01:10:22;94983.13;;;9.30;100.00
1832;BME280;1680;48.106;11.708;2023-04-22T01:12:50;94987.22;;;9.26;100.00
1832;BME280;1680;48.106;11.708;2023-04-22T01:15:17;94989.84;;;9.26;100.00
1832;BME280;1680;48.106;11.708;2023-04-22T01:17:45;94984.97;;;9.18;100.00
1832;BME280;1680;48.106;11.708;2023-04-22T01:20:14;94994.28;;;9.14;100.00
1832;BME280;1680;48.106;11.708;2023-04-22T01:22:43;94989.63;;;9.16;100.00
1832;BME280;1680;48.106;11.708;2023-04-22T01:25:12;94991.09;;;9.12;100.00
1832;BME280;1680;48.106;11.708;2023-04-22T01:27:39;94995.16;;;9.08;100.00
1832;BME280;1680;48.106;11.708;2023-04-22T01:30:08;94993.13;;;9.10;100.00
1832;BME280;1680;48.106;11.708;2023-04-22T01:32:35;94965.03;;;8.82;100.00
1832;BME280;1680;48.106;11.708;2023-04-22T01:35:03;94987.88;;;9.10;100.00
1832;BME280;1680;48.106;11.708;2023-04-22T01:37:31;94990.88;;;9.13;100.00
1832;BME280;1680;48.106;11.708;2023-04-22T01:39:58;94985.16;;;9.16;100.00
1832;BME280;1680;48.106;11.708;2023-04-22T01:42:27;94988.22;;;9.02;100.00
1832;BME280;1680;48.106;11.708;2023-04-22T01:44:54;94980.72;;;9.05;100.00
1832;BME280;1680;48.106;11.708;2023-04-22T01:47:21;94984.47;;;8.98;100.00
1832;BME280;1680;48.106;11.708;2023-04-22T01:49:48;94987.44;;;8.90;100.00
1832;BME280;1680;48.106;11.708;2023-04-22T01:52:16;94992.66;;;8.90;100.00
1832;BME280;1680;48.106;11.708;2023-04-22T01:54:43;94989.03;;;8.91;100.00
1832;BME280;1680;48.106;11.708;2023-04-22T01:57:11;94993.88;;;8.76;100.00
1832;BME280;1680;48.106;11.708;2023-04-22T01:59:42;94992.84;;;8.77;100.00
1832;BME280;1680;48.106;11.708;2023-04-22T02:02:09;94991.50;;;8.86;100.00
1832;BME280;1680;48.106;11.708;2023-04-22T02:04:36;94992.06;;;8.99;100.00
1832;BME280;1680;48.106;11.708;2023-04-22T02:07:03;94994.78;;;8.93;100.00
1832;BME280;1680;48.106;11.708;2023-04-22T02:09:32;95000.81;;;8.82;100.00
1832;BME280;1680;48.106;11.708;2023-04-22T02:11:59;94997.84;;;8.78;100.00
1832;BME280;1680;48.106;11.708;2023-04-22T02:14:26;94988.06;;;8.74;100.00
1832;BME280;1680;48.106;11.708;2023-04-22T02:16:55;95001.44;;;8.66;100.00
1832;BME280;1680;48.106;11.708;2023-04-22T02:19:22;95001.44;;;8.66;100.00
1832;BME280;1680;48.106;11.708;2023-04-22T02:21:49;94940.19;;;8.21;100.00
1832;BME280;1680;48.106;11.708;2023-04-22T02:24:17;95003.59;;;8.58;100.00
1832;BME280;1680;48.106;11.708;2023-04-22T02:26:44;95008.72;;;8.64;100.00
1832;BME280;1680;48.106;11.708;2023-04-22T02:29:11;94982.19;;;8.38;100.00
1832;BME280;1680;48.106;11.708;2023-04-22T02:31:39;94996.66;;;8.52;100.00
1832;BME280;1680;48.106;11.708;2023-04-22T02:34:07;94994.81;;;8.52;100.00
1832;BME280;1680;48.106;11.708;2023-04-22T02:36:34;94997.75;;;8.44;100.00
1832;BME280;1680;48.106;11.708;2023-04-22T02:39:02;94988.72;;;8.58;100.00
1832;BME280;1680;48.106;11.708;2023-04-22T02:41:30;94997.56;;;8.57;100.00
1832;BME280;1680;48.106;11.708;2023-04-22T02:43:57;94994.81;;;8.52;100.00
1832;BME280;1680;48.106;11.708;2023-04-22T02:46:24;94995.25;;;8.49;100.00
1832;BME280;1680;48.106;11.708;2023-04-22T02:48:52;94994.13;;;8.45;100.00
1832;BME280;1680;48.106;11.708;2023-04-22T02:51:20;94995.00;;;8.39;100.00
1832;BME280;1680;48.106;11.708;2023-04-22T02:53:47;94994.66;;;8.36;100.00
1832;BME280;1680;48.106;11.708;2023-04-22T02:56:15;94990.94;;;8.43;100.00
1832;BME280;1680;48.106;11.708;2023-04-22T02:58:42;94995.00;;;8.39;100.00
1832;BME280;1680;48.106;11.708;2023-04-22T03:01:09;94994.56;;;8.42;100.00
1832;BME280;1680;48.106;11.708;2023-04-22T03:03:37;94986.16;;;8.40;100.00
1832;BME280;1680;48.106;11.708;2023-04-22T03:06:04;94986.84;;;8.47;100.00
1832;BME280;1680;48.106;11.708;2023-04-22T03:08:33;94985.72;;;8.43;100.00
1832;BME280;1680;48.106;11.708;2023-04-22T03:11:00;94929.25;;;7.95;100.00
1832;BME280;1680;48.106;11.708;2023-04-22T03:13:27;94978.97;;;8.36;100.00
1832;BME280;1680;48.106;11.708;2023-04-22T03:15:54;94975.34;;;8.37;100.00
1832;BME280;1680;48.106;11.708;2023-04-22T03:18:21;94982.25;;;8.31;100.00
1832;BME280;1680;48.106;11.708;2023-04-22T03:20:48;94979.50;;;8.26;100.00
1832;BME280;1680;48.106;11.708;2023-04-22T03:23:16;94982.13;;;8.26;100.00
1832;BME280;1680;48.106;11.708;2023-04-22T03:25:44;94982.41;;;8.18;100.00
1832;BME280;1680;48.106;11.708;2023-04-22T03:28:11;94978.94;;;8.06;100.00
1832;BME280;1680;48.106;11.708;2023-04-22T03:30:38;94961.16;;;7.97;100.00
1832;BME280;1680;48.106;11.708;2023-04-22T03:33:06;94970.34;;;7.88;100.00
1832;BME280;1680;48.106;11.708;2023-04-22T03:35:33;94966.13;;;7.69;100.00
1832;BME280;1680;48.106;11.708;2023-04-22T03:38:00;94969.56;;;7.69;100.00
1832;BME280;1680;48.106;11.708;2023-04-22T03:40:27;94963.84;;;7.61;100.00
1832;BME280;1680;48.106;11.708;2023-04-22T03:42:56;94978.25;;;7.64;100.00
1832;BME280;1680;48.106;11.708;2023-04-22T03:45:23;94976.50;;;7.40;100.00
1832;BME280;1680;48.106;11.708;2023-04-22T03:47:51;94970.25;;;7.23;100.00
1832;BME280;1680;48.106;11.708;2023-04-22T03:50:18;94967.78;;;7.28;100.00
1832;BME280;1680;48.106;11.708;2023-04-22T03:52:45;94978.03;;;7.47;100.00
1832;BME280;1680;48.106;11.708;2023-04-22T03:55:12;94973.66;;;7.41;100.00
1832;BME280;1680;48.106;11.708;2023-04-22T03:57:39;94982.22;;;7.30;100.00
1832;BME280;1680;48.106;11.708;2023-04-22T04:00:09;94982.41;;;7.29;100.00
1832;BME280;1680;48.106;11.708;2023-04-22T04:02:36;94984.81;;;7.30;100.00
1832;BME280;1680;48.106;11.708;2023-04-22T04:05:04;94988.78;;;7.33;100.00
1832;BME280;1680;48.106;11.708;2023-04-22T04:07:31;94984.47;;;7.45;100.00
1832;BME280;1680;48.106;11.708;2023-04-22T04:09:59;94983.44;;;7.46;100.00
1832;BME280;1680;48.106;11.708;2023-04-22T04:12:26;94981.94;;;7.56;100.00
1832;BME280;1680;48.106;11.708;2023-04-22T04:14:53;94986.50;;;7.61;100.00
1832;BME280;1680;48.106;11.708;2023-04-22T04:17:21;94981.88;;;7.63;100.00
1832;BME280;1680;48.106;11.708;2023-04-22T04:19:50;94982.53;;;7.58;100.00
1832;BME280;1680;48.106;11.708;2023-04-22T04:22:17;94986.22;;;7.51;100.00
1832;BME280;1680;48.106;11.708;2023-04-22T04:24:45;94984.31;;;7.58;100.00
1832;BME280;1680;48.106;11.708;2023-04-22T04:27:12;94991.19;;;7.52;100.00
1832;BME280;1680;48.106;11.708;2023-04-22T04:29:39;94983.88;;;7.61;100.00
1832;BME280;1680;48.106;11.708;2023-04-22T04:32:07;94989.25;;;7.48;100.00
1832;BME280;1680;48.106;11.708;2023-04-22T04:34:36;94986.56;;;7.54;100.00
1832;BME280;1680;48.106;11.708;2023-04-22T04:37:03;94994.03;;;7.51;100.00
1832;BME280;1680;48.106;11.708;2023-04-22T04:39:30;94984.84;;;7.48;100.00
1832;BME280;1680;48.106;11.708;2023-04-22T04:41:57;94992.72;;;7.60;100.00
1832;BME280;1680;48.106;11.708;2023-04-22T04:44:25;94991.88;;;7.66;100.00
1832;BME280;1680;48.106;11.708;2023-04-22T04:46:52;94996.25;;;7.71;100.00
1832;BME280;1680;48.106;11.708;2023-04-22T04:49:20;94993.31;;;7.79;100.00
1832;BME280;1680;48.106;11.708;2023-04-22T04:51:48;94924.78;;;7.37;100.00
1832;BME280;1680;48.106;11.708;2023-04-22T04:54:16;94984.47;;;7.80;100.00
1832;BME280;1680;48.106;11.708;2023-04-22T04:56:43;94991.28;;;7.81;100.00
1832;BME280;1680;48.106;11.708;2023-04-22T04:59:10;94981.88;;;7.80;100.00
1832;BME280;1680;48.106;11.708;2023-04-22T05:01:37;94980.38;;;8.02;100.00
1832;BME280;1680;48.106;11.708;2023-04-22T05:04:04;94981.84;;;7.98;100.00
1832;BME280;1680;48.106;11.708;2023-04-22T05:06:31;94990.69;;;7.97;100.00
1832;BME280;1680;48.106;11.708;2023-04-22T05:09:00;94995.03;;;8.03;100.00
1832;BME280;1680;48.106;11.708;2023-04-22T05:11:27;94943.22;;;7.71;100.00
1832;BME280;1680;48.106;11.708;2023-04-22T05:13:55;94991.25;;;8.17;100.00
1832;BME280;1680;48.106;11.708;2023-04-22T05:16:22;94989.03;;;8.21;100.00
1832;BME280;1680;48.106;11.708;2023-04-22T05:18:49;94992.31;;;8.16;100.00
1832;BME280;1680;48.106;11.708;2023-04-22T05:21:17;94995.47;;;8.18;100.00
1832;BME280;1680;48.106;11.708;2023-04-22T05:23:44;94995.63;;;8.23;100.00
1832;BME280;1680;48.106;11.708;2023-04-22T05:26:13;94994.47;;;8.19;100.00
1832;BME280;1680;48.106;11.708;2023-04-22T05:28:40;94992.72;;;8.31;100.00
1832;BME280;1680;48.106;11.708;2023-04-22T05:31:07;94957.94;;;8.13;100.00
1832;BME280;1680;48.106;11.708;2023-04-22T05:33:34;94993.66;;;8.48;100.00
1832;BME280;1680;48.106;11.708;2023-04-22T05:36:01;94994.63;;;8.65;100.00
1832;BME280;1680;48.106;11.708;2023-04-22T05:38:28;94998.63;;;8.79;100.00
1832;BME280;1680;48.106;11.708;2023-04-22T05:40:55;94997.63;;;8.80;100.00
1832;BME280;1680;48.106;11.708;2023-04-22T05:43:24;94994.69;;;8.88;100.00
1832;BME280;1680;48.106;11.708;2023-04-22T05:45:51;94984.56;;;8.91;100.00
1832;BME280;1680;48.106;11.708;2023-04-22T05:48:18;94988.00;;;9.03;100.00
1832;BME280;1680;48.106;11.708;2023-04-22T05:50:46;94995.63;;;9.16;100.00
1832;BME280;1680;48.106;11.708;2023-04-22T05:53:13;95003.84;;;9.20;100.00
1832;BME280;1680;48.106;11.708;2023-04-22T05:55:40;95009.44;;;9.35;100.00
1832;BME280;1680;48.106;11.708;2023-04-22T05:58:07;95010.53;;;9.50;99.81
1832;BME280;1680;48.106;11.708;2023-04-22T06:00:36;95008.50;;;9.63;98.90
1832;BME280;1680;48.106;11.708;2023-04-22T06:03:03;95005.97;;;9.80;98.24
1832;BME280;1680;48.106;11.708;2023-04-22T06:05:30;95014.13;;;9.95;97.08
1832;BME280;1680;48.106;11.708;2023-04-22T06:07:57;95015.84;;;10.12;96.42
1832;BME280;1680;48.106;11.708;2023-04-22T06:10:24;95014.34;;;10.16;95.68
1832;BME280;1680;48.106;11.708;2023-04-22T06:12:51;95018.75;;;10.27;94.28
1832;BME280;1680;48.106;11.708;2023-04-22T06:15:18;95025.50;;;10.63;93.58
1832;BME280;1680;48.106;11.708;2023-04-22T06:17:48;95024.94;;;10.61;93.28
1832;BME280;1680;48.106;11.708;2023-04-22T06:20:15;95030.44;;;10.75;91.25
1832;BME280;1680;48.106;11.708;2023-04-22T06:22:42;95032.47;;;11.01;90.25
1832;BME280;1680;48.106;11.708;2023-04-22T06:25:10;95032.41;;;11.13;90.11
1832;BME280;1680;48.106;11.708;2023-04-22T06:27:37;95033.91;;;11.09;90.20
1832;BME280;1680;48.106;11.708;2023-04-22T06:30:05;95034.97;;;11.41;88.64
1832;BME280;1680;48.106;11.708;2023-04-22T06:32:33;95039.44;;;11.57;87.43
1832;BME280;1680;48.106;11.708;2023-04-22T06:35:02;95046.03;;;11.75;86.07
1832;BME280;1680;48.106;11.708;2023-04-22T06:37:30;95042.22;;;11.83;86.12
1832;BME280;1680;48.106;11.708;2023-04-22T06:39:57;95044.31;;;12.02;85.58
1832;BME280;1680;48.106;11.708;2023-04-22T06:42:24;95042.28;;;12.09;83.61
1832;BME280;1680;48.106;11.708;2023-04-22T06:44:51;95038.34;;;12.28;83.72
1832;BME280;1680;48.106;11.708;2023-04-22T06:47:19;95029.47;;;12.34;83.44
1832;BME280;1680;48.106;11.708;2023-04-22T06:49:46;95032.88;;;12.35;83.36
1832;BME280;1680;48.106;11.708;2023-04-22T06:52:16;95035.38;;;12.67;81.53
1832;BME280;1680;48.106;11.708;2023-04-22T06:54:43;95038.06;;;12.72;80.63
1832;BME280;1680;48.106;11.708;2023-04-22T06:57:10;95038.56;;;12.69;80.52
1832;BME280;1680;48.106;11.708;2023-04-22T06:59:37;95042.69;;;12.87;80.23
1832;BME280;1680;48.106;11.708;2023-04-22T07:02:04;95034.34;;;12.90;79.88
1832;BME280;1680;48.106;11.708;2023-04-22T07:04:31;95036.00;;;13.01;79.56
1832;BME280;1680;48.106;11.708;2023-04-22T07:06:58;95044.66;;;13.23;78.05
1832;BME280;1680;48.106;11.708;2023-04-22T07:09:27;95045.34;;;13.45;75.51
1832;BME280;1680;48.106;11.708;2023-04-22T07:11:54;95038.13;;;13.61;74.90
1832;BME280;1680;48.106;11.708;2023-04-22T07:14:24;95035.03;;;13.74;76.10
1832;BME280;1680;48.106;11.708;2023-04-22T07:16:51;95031.06;;;13.72;74.11
1832;BME280;1680;48.106;11.708;2023-04-22T07:19:19;95020.50;;;14.08;74.75
1832;BME280;1680;48.106;11.708;2023-04-22T07:21:46;95029.56;;;14.22;71.41
1832;BME280;1680;48.106;11.708;2023-04-22T07:24:13;95026.50;;;14.50;69.61
1832;BME280;1680;48.106;11.708;2023-04-22T07:26:43;95024.16;;;14.58;73.01
1832;BME280;1680;48.106;11.708;2023-04-22T07:29:10;95015.22;;;14.64;71.74
1832;BME280;1680;48.106;11.708;2023-04-22T07:31:38;95018.41;;;14.71;69.89
1832;BME280;1680;48.106;11.708;2023-04-22T07:34:05;95009.50;;;15.02;66.52
1832;BME280;1680;48.106;11.708;2023-04-22T07:36:34;95016.91;;;15.10;66.66
1832;BME280;1680;48.106;11.708;2023-04-22T07:39:02;95013.47;;;15.15;65.41
1832;BME280;1680;48.106;11.708;2023-04-22T07:41:29;95006.13;;;15.32;68.28
1832;BME280;1680;48.106;11.708;2023-04-22T07:43:58;95005.59;;;15.40;69.72
1832;BME280;1680;48.106;11.708;2023-04-22T07:46:25;95006.38;;;15.60;73.91
1832;BME280;1680;48.106;11.708;2023-04-22T07:48:52;95010.31;;;15.82;69.75
1832;BME280;1680;48.106;11.708;2023-04-22T07:51:19;95014.53;;;15.88;66.75
1832;BME280;1680;48.106;11.708;2023-04-22T07:53:46;95013.50;;;15.94;69.04
1832;BME280;1680;48.106;11.708;2023-04-22T07:56:13;95023.47;;;16.17;64.98
1832;BME280;1680;48.106;11.708;2023-04-22T07:58:41;95020.81;;;16.22;65.98
1832;BME280;1680;48.106;11.708;2023-04-22T08:01:09;95014.19;;;16.35;63.58
1832;BME280;1680;48.106;11.708;2023-04-22T08:03:36;95021.00;;;16.55;61.18
1832;BME280;1680;48.106;11.708;2023-04-22T08:06:04;95007.47;;;16.57;60.93
1832;BME280;1680;48.106;11.708;2023-04-22T08:08:31;95018.53;;;16.74;61.43
1832;BME280;1680;48.106;11.708;2023-04-22T08:10:58;94998.75;;;16.61;59.13
1832;BME280;1680;48.106;11.708;2023-04-22T08:13:25;95011.16;;;16.66;58.86
1832;BME280;1680;48.106;11.708;2023-04-22T08:15:52;95015.66;;;16.65;58.29
1832;BME280;1680;48.106;11.708;2023-04-22T08:18:21;95016.16;;;16.72;58.59
1832;BME280;1680;48.106;11.708;2023-04-22T08:20:49;95018.31;;;17.14;60.53
1832;BME280;1680;48.106;11.708;2023-04-22T08:23:16;95011.56;;;17.36;56.55
1832;BME280;1680;48.106;11.708;2023-04-22T08:25:43;95012.00;;;17.48;56.58
1832;BME280;1680;48.106;11.708;2023-04-22T08:28:10;95021.78;;;17.52;56.01
1832;BME280;1680;48.106;11.708;2023-04-22T08:30:37;94974.69;;;17.40;60.46
1832;BME280;1680;48.106;11.708;2023-04-22T08:33:05;95013.91;;;17.71;58.20
1832;BME280;1680;48.106;11.708;2023-04-22T08:35:34;95014.34;;;17.54;59.46
1832;BME280;1680;48.106;11.708;2023-04-22T08:38:02;95016.53;;;17.76;60.01
1832;BME280;1680;48.106;11.708;2023-04-22T08:40:29;95016.81;;;18.03;59.37
1832;BME280;1680;48.106;11.708;2023-04-22T08:42:56;95021.06;;;18.32;58.17
1832;BME280;1680;48.106;11.708;2023-04-22T08:45:24;95023.16;;;18.35;55.92
1832;BME280;1680;48.106;11.708;2023-04-22T08:47:51;95010.59;;;18.41;57.54
1832;BME280;1680;48.106;11.708;2023-04-22T08:50:23;95012.09;;;18.70;58.59
1832;BME280;1680;48.106;11.708;2023-04-22T08:52:52;95020.25;;;18.55;58.07
1832;BME280;1680;48.106;11.708;2023-04-22T08:55:19;95020.25;;;18.32;55.81
1832;BME280;1680;48.106;11.708;2023-04-22T08:57:46;95018.31;;;18.37;57.65
1832;BME280;1680;48.106;11.708;2023-04-22T09:00:15;95020.16;;;18.65;57.98
1832;BME280;1680;48.106;11.708;2023-04-22T09:02:43;95007.59;;;18.70;57.43
1832;BME280;1680;48.106;11.708;2023-04-22T09:05:12;95014.56;;;18.85;56.39
1832;BME280;1680;48.106;11.708;2023-04-22T09:07:40;95016.06;;;18.72;56.35
1832;BME280;1680;48.106;11.708;2023-04-22T09:10:09;95001.69;;;18.73;56.35
1832;BME280;1680;48.106;11.708;2023-04-22T09:12:37;95005.31;;;19.01;56.80
1832;BME280;1680;48.106;11.708;2023-04-22T09:15:07;94995.34;;;18.93;54.86
1832;BME280;1680;48.106;11.708;2023-04-22T09:17:35;95005.66;;;18.76;54.64
1832;BME280;1680;48.106;11.708;2023-04-22T09:20:04;95008.31;;;18.76;53.70
1832;BME280;1680;48.106;11.708;2023-04-22T09:22:37;95004.41;;;18.68;51.99
1832;BME280;1680;48.106;11.708;2023-04-22T09:25:06;94998.75;;;18.75;52.79
1832;BME280;1680;48.106;11.708;2023-04-22T09:27:42;95005.66;;;18.76;51.69
1832;BME280;1680;48.106;11.708;2023-04-22T09:30:09;94997.44;;;19.14;50.89
1832;BME280;1680;48.106;11.708;2023-04-22T09:32:38;94997.22;;;19.29;50.28
1832;BME280;1680;48.106;11.708;2023-04-22T09:35:06;94998.00;;;19.30;50.06
1832;BME280;1680;48.106;11.708;2023-04-22T09:37:33;94994.03;;;19.46;49.75
1832;BME280;1680;48.106;11.708;2023-04-22T09:40:00;94998.06;;;19.43;48.87
1832;BME280;1680;48.106;11.708;2023-04-22T09:42:28;94991.59;;;19.81;51.21
1832;BME280;1680;48.106;11.708;2023-04-22T09:44:57;94996.81;;;19.54;48.44
1832;BME280;1680;48.106;11.708;2023-04-22T09:47:24;94991.56;;;19.49;48.81
1832;BME280;1680;48.106;11.708;2023-04-22T09:49:52;94999.66;;;19.26;49.02
1832;BME280;1680;48.106;11.708;2023-04-22T09:52:22;94986.34;;;19.44;47.81
1832;BME280;1680;48.106;11.708;2023-04-22T09:54:52;94992.66;;;19.48;47.28
1832;BME280;1680;48.106;11.708;2023-04-22T09:57:20;94987.22;;;19.71;47.75
1832;BME280;1680;48.106;11.708;2023-04-22T09:59:49;94983.06;;;19.65;49.84
1832;BME280;1680;48.106;11.708;2023-04-22T10:02:27;94971.44;;;19.61;50.71
1832;BME280;1680;48.106;11.708;2023-04-22T10:04:55;94984.47;;;19.76;47.82
1832;BME280;1680;48.106;11.708;2023-04-22T10:07:23;94976.69;;;19.80;48.43
1832;BME280;1680;48.106;11.708;2023-04-22T10:09:55;94972.25;;;19.62;49.57
1832;BME280;1680;48.106;11.708;2023-04-22T10:12:23;94969.66;;;19.70;46.58
1832;BME280;1680;48.106;11.708;2023-04-22T10:14:52;94972.69;;;19.96;44.50
1832;BME280;1680;48.106;11.708;2023-04-22T10:17:20;94966.84;;;20.12;45.43
1832;BME280;1680;48.106;11.708;2023-04-22T10:19:48;94967.81;;;20.30;44.17
1832;BME280;1680;48.106;11.708;2023-04-22T10:22:16;94967.84;;;20.43;44.84
1832;BME280;1680;48.106;11.708;2023-04-22T10:24:46;94972.44;;;20.51;41.47
1832;BME280;1680;48.106;11.708;2023-04-22T10:27:20;94967.81;;;20.70;37.98
1832;BME280;1680;48.106;11.708;2023-04-22T10:29:47;94964.66;;;20.81;37.26
1832;BME280;1680;48.106;11.708;2023-04-22T10:32:26;94954.97;;;20.72;35.88
1832;BME280;1680;48.106;11.708;2023-04-22T10:35:12;94955.47;;;20.60;34.53
1832;BME280;1680;48.106;11.708;2023-04-22T10:37:41;94959.53;;;20.58;35.97
1832;BME280;1680;48.106;11.708;2023-04-22T10:40:13;94955.78;;;20.59;38.29
1832;BME280;1680;48.106;11.708;2023-04-22T10:42:45;94956.94;;;20.93;38.46
1832;BME280;1680;48.106;11.708;2023-04-22T10:45:13;94956.28;;;21.10;36.14
1832;BME280;1680;48.106;11.708;2023-04-22T10:47:42;94955.31;;;21.06;36.75
1832;BME280;1680;48.106;11.708;2023-04-22T10:50:15;94947.09;;;21.16;36.46
1832;BME280;1680;48.106;11.708;2023-04-22T10:52:46;94939.44;;;21.23;35.89
1832;BME280;1680;48.106;11.708;2023-04-22T10:55:13;94889.19;;;20.94;36.01
1832;BME280;1680;48.106;11.708;2023-04-22T10:57:42;94935.69;;;21.02;38.52
1832;BME280;1680;48.106;11.708;2023-04-22T11:00:28;94937.34;;;21.33;37.74
1832;BME280;1680;48.106;11.708;2023-04-22T11:03:13;94891.31;;;21.06;37.99
1832;BME280;1680;48.106;11.708;2023-04-22T11:05:41;94933.47;;;21.39;37.36
1832;BME280;1680;48.106;11.708;2023-04-22T11:08:18;94933.59;;;21.56;36.30
1832;BME280;1680;48.106;11.708;2023-04-22T11:10:49;94929.72;;;21.62;35.36
1832;BME280;1680;48.106;11.708;2023-04-22T11:13:19;94933.19;;;21.62;35.48
1832;BME280;1680;48.106;11.708;2023-04-22T11:15:47;94935.75;;;21.54;34.48
1832;BME280;1680;48.106;11.708;2023-04-22T11:18:20;94933.78;;;21.90;35.28
1832;BME280;1680;48.106;11.708;2023-04-22T11:20:48;94924.91;;;22.03;33.45
1832;BME280;1680;48.106;11.708;2023-04-22T11:23:19;94920.69;;;22.10;34.40
1832;BME280;1680;48.106;11.708;2023-04-22T11:25:46;94923.63;;;22.00;32.15
1832;BME280;1680;48.106;11.708;2023-04-22T11:28:14;94921.69;;;21.84;34.27
1832;BME280;1680;48.106;11.708;2023-04-22T11:30:41;94920.53;;;21.76;34.70
1832;BME280;1680;48.106;11.708;2023-04-22T11:33:08;94917.66;;;22.34;32.80
1832;BME280;1680;48.106;11.708;2023-04-22T11:35:37;94819.50;;;21.61;33.58
1832;BME280;1680;48.106;11.708;2023-04-22T11:38:04;94915.81;;;22.12;33.34
1832;BME280;1680;48.106;11.708;2023-04-22T11:40:35;94908.97;;;22.28;33.41
1832;BME280;1680;48.106;11.708;2023-04-22T11:43:03;94917.03;;;22.37;33.56
1832;BME280;1680;48.106;11.708;2023-04-22T11:45:32;94893.56;;;22.25;34.25
1832;BME280;1680;48.106;11.708;2023-04-22T11:48:00;94918.81;;;22.58;34.67
1832;BME280;1680;48.106;11.708;2023-04-22T11:50:30;94916.69;;;22.94;34.44
1832;BME280;1680;48.106;11.708;2023-04-22T11:53:00;94914.22;;;23.06;33.63
1832;BME280;1680;48.106;11.708;2023-04-22T11:55:30;94915.63;;;23.29;32.16
1832;BME280;1680;48.106;11.708;2023-04-22T11:57:59;94883.78;;;23.02;29.91
1832;BME280;1680;48.106;11.708;2023-04-22T12:00:30;94903.31;;;23.02;32.72
1832;BME280;1680;48.106;11.708;2023-04-22T12:02:59;94907.13;;;23.18;31.39
1832;BME280;1680;48.106;11.708;2023-04-22T12:05:36;94903.84;;;23.13;34.80
1832;BME280;1680;48.106;11.708;2023-04-22T12:08:09;94904.75;;;23.17;32.19
1832;BME280;1680;48.106;11.708;2023-04-22T12:10:42;94905.06;;;23.32;32.84
1832;BME280;1680;48.106;11.708;2023-04-22T12:13:16;94894.84;;;23.43;35.08
1832;BME280;1680;48.106;11.708;2023-04-22T12:15:44;94900.28;;;23.71;32.46
1832;BME280;1680;48.106;11.708;2023-04-22T12:18:11;94894.31;;;23.74;32.18
1832;BME280;1680;48.106;11.708;2023-04-22T12:20:40;94849.91;;;23.65;31.00
1832;BME280;1680;48.106;11.708;2023-04-22T12:23:14;94900.06;;;24.02;32.11
1832;BME280;1680;48.106;11.708;2023-04-22T12:25:42;94896.84;;;24.17;30.98
1832;BME280;1680;48.106;11.708;2023-04-22T12:28:10;94897.91;;;24.24;30.65
1832;BME280;1680;48.106;11.708;2023-04-22T12:30:38;94888.75;;;24.25;29.32
1832;BME280;1680;48.106;11.708;2023-04-22T12:33:05;94883.22;;;24.30;29.52
1832;BME280;1680;48.106;11.708;2023-04-22T12:35:33;94883.47;;;24.08;29.65
1832;BME280;1680;48.106;11.708;2023-04-22T12:38:01;94894.25;;;24.29;30.22
1832;BME280;1680;48.106;11.708;2023-04-22T12:40:29;94887.72;;;24.09;29.65
1832;BME280;1680;48.106;11.708;2023-04-22T12:42:56;94886.88;;;24.26;29.11
1832;BME280;1680;48.106;11.708;2023-04-22T12:45:24;94881.84;;;24.24;29.26
1832;BME280;1680;48.106;11.708;2023-04-22T12:47:51;94885.34;;;24.16;29.56
1832;BME280;1680;48.106;11.708;2023-04-22T12:50:19;94882.09;;;24.02;30.84
1832;BME280;1680;48.106;11.708;2023-04-22T12:52:47;94875.78;;;24.07;30.39
1832;BME280;1680;48.106;11.708;2023-04-22T12:55:14;94875.16;;;24.01;30.39
1832;BME280;1680;48.106;11.708;2023-04-22T12:57:43;94881.63;;;24.00;30.39
1832;BME280;1680;48.106;11.708;2023-04-22T13:00:11;94872.88;;;23.74;30.05
1832;BME280;1680;48.106;11.708;2023-04-22T13:02:40;94872.78;;;24.00;31.25
1832;BME280;1680;48.106;11.708;2023-04-22T13:05:08;94875.91;;;24.10;29.94
1832;BME280;1680;48.106;11.708;2023-04-22T13:07:36;94880.75;;;24.17;30.63
1832;BME280;1680;48.106;11.708;2023-04-22T13:10:04;94870.19;;;24.20;29.61
1832;BME280;1680;48.106;11.708;2023-04-22T13:12:32;94857.97;;;24.40;30.05
1832;BME280;1680;48.106;11.708;2023-04-22T13:15:00;94865.19;;;24.48;29.15
1832;BME280;1680;48.106;11.708;2023-04-22T13:17:28;94807.75;;;23.91;30.46